Time;durP1;ratioP1;P1;durP2;ratioP2;P2;SDS_P1;SDS_P2;PMS_P1;PMS_P2;Temp;Humidity;BMP_temperature;BMP_pressure;BME280_temperature;BME280_humidity;BME280_pressure;Samples;Min_cycle;Max_cycle;Signal;HPM_P1;HPM_P2
2023/04/25 00:01:30;;;;;;;6.75;1.83;;;21.50;53.60;;;;;;5113464;28;20525;-71
2023/04/25 00:03:56;;;;;;;3.90;2.10;;;21.60;53.60;;;;;;5114052;28;20038;-71
2023/04/25 00:06:26;;;;;;;8.48;2.25;;;21.50;53.70;;;;;;5118944;27;20032;-71
2023/04/25 00:08:53;;;;;;;5.57;1.95;;;21.50;54.10;;;;;;5092535;28;20051;-71
2023/04/25 00:11:19;;;;;;;8.65;1.90;;;21.50;53.40;;;;;;5109639;27;20069;-71
2023/04/25 00:13:46;;;;;;;5.38;2.00;;;21.50;53.90;;;;;;5100565;27;20028;-71
2023/04/25 00:16:14;;;;;;;7.25;2.17;;;21.50;53.70;;;;;;5120332;27;20023;-71
2023/04/25 00:18:42;;;;;;;10.00;2.72;;;21.50;54.00;;;;;;5113006;27;20537;-72
2023/04/25 00:21:08;;;;;;;9.45;2.50;;;21.50;54.20;;;;;;5095021;28;20020;-72
2023/04/25 00:23:36;;;;;;;15.02;2.30;;;21.50;53.90;;;;;;5110482;27;20029;-71
2023/04/25 00:26:02;;;;;;;6.75;2.00;;;21.50;54.00;;;;;;5107969;28;20019;-72
2023/04/25 00:28:28;;;;;;;10.32;2.30;;;21.50;53.90;;;;;;5104964;28;20448;-71
2023/04/25 00:30:54;;;;;;;12.65;2.08;;;21.50;53.90;;;;;;5093712;28;20094;-71
2023/04/25 00:33:20;;;;;;;7.72;2.20;;;21.50;53.80;;;;;;5091611;28;20482;-71
2023/04/25 00:35:45;;;;;;;6.22;2.08;;;21.50;53.90;;;;;;5091396;28;20041;-71
2023/04/25 00:38:11;;;;;;;5.95;1.92;;;21.50;54.00;;;;;;5095583;28;20499;-71
2023/04/25 00:40:37;;;;;;;6.90;1.92;;;21.50;54.00;;;;;;5095104;27;20106;-72
2023/04/25 00:43:04;;;;;;;11.20;2.08;;;21.50;54.00;;;;;;5094682;28;20034;-72
2023/04/25 00:45:30;;;;;;;5.07;1.90;;;21.50;54.00;;;;;;5078854;27;20032;-71
2023/04/25 00:47:56;;;;;;;7.03;2.10;;;21.50;54.00;;;;;;5096315;28;20111;-71
2023/04/25 00:50:23;;;;;;;11.52;2.55;;;21.50;54.00;;;;;;5111865;28;20024;-71
2023/04/25 00:52:49;;;;;;;5.75;1.85;;;21.50;54.20;;;;;;5091905;27;20490;-71
2023/04/25 00:55:15;;;;;;;6.45;2.05;;;21.50;54.00;;;;;;5101296;27;20020;-71
2023/04/25 00:57:42;;;;;;;5.53;1.80;;;21.50;54.10;;;;;;5120953;27;20019;-71
2023/04/25 01:00:10;;;;;;;6.40;1.77;;;21.50;54.00;;;;;;5113151;27;20024;-71
2023/04/25 01:02:37;;;;;;;5.43;2.00;;;21.50;54.20;;;;;;5114113;22;20505;-73
2023/04/25 01:05:03;;;;;;;3.78;1.70;;;21.50;54.10;;;;;;5082959;28;20058;-73
2023/04/25 01:07:30;;;;;;;7.45;2.22;;;21.50;53.80;;;;;;5088598;28;20056;-72
2023/04/25 01:09:56;;;;;;;9.32;1.88;;;21.50;53.90;;;;;;5072111;28;20024;-72
2023/04/25 01:12:22;;;;;;;5.68;1.90;;;21.50;54.00;;;;;;5093268;28;20077;-72
2023/04/25 01:14:49;;;;;;;5.57;2.10;;;21.50;54.00;;;;;;5091447;28;20445;-72
2023/04/25 01:17:15;;;;;;;6.03;2.25;;;21.50;54.00;;;;;;5091150;28;20024;-72
2023/04/25 01:19:41;;;;;;;7.63;1.83;;;21.50;54.10;;;;;;5093140;28;20497;-72
2023/04/25 01:22:10;;;;;;;3.78;1.52;;;21.50;53.80;;;;;;5086068;28;20361;-71
2023/04/25 01:24:36;;;;;;;8.60;2.10;;;21.50;54.10;;;;;;5069225;28;20028;-72
2023/04/25 01:27:03;;;;;;;4.00;1.98;;;21.40;53.90;;;;;;5079711;28;20020;-72
2023/04/25 01:29:29;;;;;;;5.88;1.88;;;21.40;54.40;;;;;;5086661;28;20032;-72
2023/04/25 01:31:55;;;;;;;5.47;1.98;;;21.50;54.10;;;;;;5086804;28;20024;-72
2023/04/25 01:34:21;;;;;;;4.28;1.83;;;21.50;54.10;;;;;;5078629;28;20039;-72
2023/04/25 01:36:51;;;;;;;11.38;2.22;;;21.50;53.90;;;;;;5085900;28;20020;-72
2023/04/25 01:39:18;;;;;;;7.60;2.38;;;21.40;54.40;;;;;;5065292;28;20034;-72
2023/04/25 01:41:45;;;;;;;3.72;1.88;;;21.50;54.40;;;;;;5078234;28;20572;-71
2023/04/25 01:44:12;;;;;;;4.05;1.77;;;21.40;54.10;;;;;;5086491;28;20115;-72
2023/04/25 01:46:38;;;;;;;5.00;1.80;;;21.50;54.00;;;;;;5087485;28;20028;-72
2023/04/25 01:49:04;;;;;;;4.20;1.92;;;21.50;54.40;;;;;;5075064;28;20028;-72
2023/04/25 01:51:31;;;;;;;6.75;1.80;;;21.50;54.20;;;;;;5086056;28;20029;-72
2023/04/25 01:53:59;;;;;;;6.95;1.80;;;21.50;53.90;;;;;;5079204;28;20031;-72
2023/04/25 01:56:29;;;;;;;4.28;1.80;;;21.50;53.90;;;;;;5088091;28;20047;-72
2023/04/25 01:58:55;;;;;;;3.63;1.55;;;21.50;54.80;;;;;;5076968;28;20078;-72
2023/04/25 02:01:39;;;;;;;6.40;1.55;;;21.40;54.20;;;;;;5082769;28;20054;-72
2023/04/25 02:04:16;;;;;;;6.30;1.45;;;21.50;54.20;;;;;;5082337;28;20024;-72
2023/04/25 02:06:43;;;;;;;4.13;1.63;;;21.50;54.20;;;;;;5081476;28;20081;-72
2023/04/25 02:09:09;;;;;;;3.90;1.77;;;21.50;54.20;;;;;;5083211;28;20139;-72
2023/04/25 02:11:40;;;;;;;3.97;1.70;;;21.50;54.00;;;;;;5080849;28;20067;-72
2023/04/25 02:14:28;;;;;;;3.22;1.60;;;21.40;54.30;;;;;;5078002;28;20029;-73
2023/04/25 02:17:02;;;;;;;6.68;1.80;;;21.40;54.20;;;;;;5065361;28;20474;-72
2023/04/25 02:19:30;;;;;;;4.93;1.58;;;21.40;54.00;;;;;;5090103;28;20028;-72
2023/04/25 02:21:56;;;;;;;5.18;2.10;;;21.40;54.20;;;;;;5080478;28;20033;-72
2023/04/25 02:24:22;;;;;;;2.45;1.52;;;21.40;54.10;;;;;;5081410;28;20032;-72
2023/04/25 02:26:49;;;;;;;2.83;1.52;;;21.40;54.20;;;;;;5080664;28;20050;-72
2023/04/25 02:29:15;;;;;;;4.70;1.90;;;21.40;54.50;;;;;;5085867;28;20032;-72
2023/04/25 02:31:42;;;;;;;3.65;1.48;;;21.40;54.10;;;;;;5074007;28;20386;-72
2023/04/25 02:34:08;;;;;;;6.25;1.60;;;21.40;54.50;;;;;;5076887;28;20028;-71
2023/04/25 02:36:36;;;;;;;6.28;1.70;;;21.40;54.50;;;;;;5077586;28;20029;-72
2023/04/25 02:39:02;;;;;;;3.30;1.60;;;21.40;54.30;;;;;;5089237;28;20532;-72
2023/04/25 02:41:28;;;;;;;6.80;1.80;;;21.40;54.50;;;;;;5097354;28;20110;-72
2023/04/25 02:43:55;;;;;;;2.92;1.67;;;21.40;54.50;;;;;;5096817;28;20115;-72
2023/04/25 02:46:21;;;;;;;6.30;1.90;;;21.40;54.40;;;;;;5094492;28;20127;-72
2023/04/25 02:48:46;;;;;;;6.35;1.70;;;21.40;54.30;;;;;;5087936;28;20533;-72
2023/04/25 02:51:12;;;;;;;4.88;1.80;;;21.40;54.40;;;;;;5079297;28;20055;-72
2023/04/25 02:53:38;;;;;;;4.85;1.70;;;21.40;54.40;;;;;;5090293;28;20024;-72
2023/04/25 02:56:05;;;;;;;3.03;1.42;;;21.40;54.90;;;;;;5088049;28;20134;-72
2023/04/25 02:58:30;;;;;;;5.10;1.83;;;21.40;54.40;;;;;;5080758;28;20024;-72
2023/04/25 03:00:56;;;;;;;3.42;1.45;;;21.40;54.00;;;;;;5084305;28;20381;-72
2023/04/25 03:03:22;;;;;;;6.18;2.03;;;21.40;53.80;;;;;;5076845;28;20043;-72
2023/04/25 03:05:52;;;;;;;5.25;1.83;;;21.40;54.30;;;;;;5097794;28;20120;-72
2023/04/25 03:08:23;;;;;;;4.15;1.55;;;21.40;54.40;;;;;;5077774;28;20081;-72
2023/04/25 03:10:51;;;;;;;3.80;1.70;;;21.40;54.10;;;;;;5083580;28;20035;-72
2023/04/25 03:13:16;;;;;;;3.75;1.40;;;21.40;54.40;;;;;;5086546;28;20020;-72
2023/04/25 03:15:43;;;;;;;3.17;1.60;;;21.40;53.80;;;;;;5072535;28;20024;-72
2023/04/25 03:18:09;;;;;;;5.47;1.50;;;21.40;54.40;;;;;;5092938;28;20501;-72
2023/04/25 03:20:35;;;;;;;2.75;1.30;;;21.40;54.40;;;;;;5092861;28;20032;-72
2023/04/25 03:23:02;;;;;;;6.75;1.98;;;21.40;54.60;;;;;;5086518;28;20028;-72
2023/04/25 03:25:29;;;;;;;3.92;1.52;;;21.30;54.60;;;;;;5086817;28;20032;-72
2023/04/25 03:27:55;;;;;;;3.30;1.40;;;21.40;54.50;;;;;;5088753;28;20373;-72
2023/04/25 03:30:21;;;;;;;4.05;1.73;;;21.40;54.50;;;;;;5083979;28;20111;-73
2023/04/25 03:32:48;;;;;;;8.02;1.40;;;21.40;54.60;;;;;;5080740;28;20028;-73
2023/04/25 03:35:16;;;;;;;4.80;1.67;;;21.30;54.60;;;;;;5063867;28;20466;-73
2023/04/25 03:37:45;;;;;;;3.90;1.67;;;21.30;54.60;;;;;;5075711;28;20021;-73
2023/04/25 03:40:12;;;;;;;5.20;2.03;;;21.40;54.70;;;;;;5070827;28;20097;-72
2023/04/25 03:42:57;;;;;;;9.98;2.25;;;21.40;54.70;;;;;;5092115;28;20027;-73
2023/04/25 03:45:23;;;;;;;10.35;1.67;;;21.40;54.70;;;;;;5083784;28;20031;-72
2023/04/25 03:47:49;;;;;;;4.13;1.50;;;21.40;54.60;;;;;;5098717;28;20085;-72
2023/04/25 03:50:15;;;;;;;6.45;1.65;;;21.40;54.70;;;;;;5081732;28;20133;-72
2023/04/25 03:52:41;;;;;;;5.55;1.55;;;21.40;54.70;;;;;;5079205;28;20128;-72
2023/04/25 03:55:08;;;;;;;2.80;1.48;;;21.40;54.70;;;;;;5085229;28;20112;-72
2023/04/25 03:57:34;;;;;;;5.50;1.90;;;21.40;54.80;;;;;;5079866;28;20090;-72
2023/04/25 04:00:00;;;;;;;8.32;1.75;;;21.40;54.80;;;;;;5076143;28;20490;-72
2023/04/25 04:02:28;;;;;;;4.60;1.58;;;21.40;54.80;;;;;;5095681;28;20028;-72
2023/04/25 04:04:55;;;;;;;5.15;1.80;;;21.40;54.90;;;;;;5075450;28;20024;-72
2023/04/25 04:07:21;;;;;;;6.93;1.70;;;21.40;54.80;;;;;;5089325;28;20028;-72
2023/04/25 04:09:51;;;;;;;2.10;1.35;;;21.40;54.80;;;;;;5083724;28;20031;-72
2023/04/25 04:12:24;;;;;;;5.82;1.58;;;21.40;55.00;;;;;;5059518;28;20428;-73
2023/04/25 04:14:50;;;;;;;3.83;1.77;;;21.40;54.90;;;;;;5083997;28;20020;-72
2023/04/25 04:17:16;;;;;;;4.57;1.77;;;21.40;55.40;;;;;;5100366;28;20024;-73
2023/04/25 04:19:42;;;;;;;4.82;2.17;;;21.40;54.90;;;;;;5088470;28;20102;-73
2023/04/25 04:22:14;;;;;;;5.93;2.22;;;21.40;55.00;;;;;;5080445;28;20521;-73
2023/04/25 04:24:43;;;;;;;4.85;1.90;;;21.40;54.80;;;;;;5093870;28;20035;-73
2023/04/25 04:27:12;;;;;;;8.40;2.78;;;21.40;54.90;;;;;;5077291;28;20058;-72
2023/04/25 04:29:48;;;;;;;8.32;2.03;;;21.40;54.90;;;;;;5076833;28;20113;-72
2023/04/25 04:32:23;;;;;;;6.60;2.00;;;21.40;55.10;;;;;;5080141;28;20035;-72
2023/04/25 04:34:49;;;;;;;4.88;1.58;;;21.40;55.20;;;;;;5075282;28;20048;-72
2023/04/25 04:37:16;;;;;;;6.75;2.00;;;21.40;55.00;;;;;;5086311;28;20031;-72
2023/04/25 04:39:45;;;;;;;4.43;1.77;;;21.40;55.00;;;;;;5092343;28;20027;-72
2023/04/25 04:42:24;;;;;;;5.50;2.10;;;21.40;55.00;;;;;;5076572;28;20032;-73
2023/04/25 04:45:02;;;;;;;4.13;1.85;;;21.40;55.30;;;;;;5081470;28;20664;-72
2023/04/25 04:48:06;;;;;;;7.38;1.65;;;21.40;55.30;;;;;;5064214;28;20493;-73
2023/04/25 04:50:45;;;;;;;3.97;1.70;;;21.40;55.20;;;;;;5083567;28;20033;-73
2023/04/25 04:53:43;;;;;;;4.68;1.85;;;21.40;55.10;;;;;;5026729;28;20037;-73
2023/04/25 04:56:30;;;;;;;4.20;1.75;;;21.40;55.20;;;;;;5076791;28;20028;-73
2023/04/25 04:59:25;;;;;;;6.10;1.83;;;21.50;55.40;;;;;;5040844;28;20071;-73
2023/04/25 05:02:17;;;;;;;4.43;2.20;;;21.40;55.10;;;;;;5090433;28;20050;-73
2023/04/25 05:05:04;;;;;;;3.95;2.00;;;21.40;55.50;;;;;;5076934;28;20501;-72
2023/04/25 05:07:58;;;;;;;5.88;2.28;;;21.40;55.60;;;;;;5085029;28;20033;-72
2023/04/25 05:10:49;;;;;;;4.32;2.42;;;21.40;55.10;;;;;;5059574;28;20105;-72
2023/04/25 05:13:40;;;;;;;5.63;2.03;;;21.40;55.10;;;;;;5077204;28;20024;-72
2023/04/25 05:16:28;;;;;;;5.53;1.80;;;21.40;55.10;;;;;;5049029;28;20093;-72
2023/04/25 05:19:05;;;;;;;6.15;2.22;;;21.40;55.20;;;;;;5077535;28;20025;-72
2023/04/25 05:21:53;;;;;;;4.15;2.00;;;21.40;55.20;;;;;;5066454;28;20571;-72
2023/04/25 05:24:42;;;;;;;5.30;2.10;;;21.40;55.20;;;;;;5095870;28;20093;-72
2023/04/25 05:27:31;;;;;;;5.47;2.10;;;21.40;55.40;;;;;;5070762;28;20032;-72
2023/04/25 05:30:15;;;;;;;10.73;2.55;;;21.40;55.10;;;;;;5057132;28;20034;-73
2023/04/25 05:32:57;;;;;;;4.32;1.90;;;21.40;55.10;;;;;;5083766;28;20024;-74
2023/04/25 05:35:23;;;;;;;10.52;2.83;;;21.40;55.20;;;;;;5082475;28;20031;-73
2023/04/25 05:37:50;;;;;;;5.65;2.00;;;21.40;55.20;;;;;;5075562;28;20036;-73
2023/04/25 05:40:16;;;;;;;6.85;2.10;;;21.40;55.10;;;;;;5088631;28;20031;-73
2023/04/25 05:42:50;;;;;;;4.45;2.05;;;21.40;55.40;;;;;;5096054;28;20020;-73
2023/04/25 05:45:28;;;;;;;4.63;2.00;;;21.40;55.20;;;;;;5081320;28;20025;-73
2023/04/25 05:47:57;;;;;;;6.30;2.05;;;21.40;55.20;;;;;;5091759;28;20107;-73
2023/04/25 05:50:52;;;;;;;7.90;2.30;;;21.40;55.60;;;;;;5056173;28;20044;-73
2023/04/25 05:53:34;;;;;;;3.85;2.10;;;21.40;55.10;;;;;;5081823;28;20493;-73
2023/04/25 05:56:01;;;;;;;4.43;1.58;;;21.40;55.20;;;;;;5081657;28;20056;-73
2023/04/25 05:58:28;;;;;;;3.95;2.15;;;21.40;55.30;;;;;;5091779;28;20111;-74
2023/04/25 06:00:55;;;;;;;4.85;2.28;;;21.40;55.20;;;;;;5081375;28;20035;-73
2023/04/25 06:03:21;;;;;;;4.63;2.20;;;21.40;55.20;;;;;;5055260;28;20032;-73
2023/04/25 06:05:48;;;;;;;9.90;2.30;;;21.40;55.40;;;;;;5089782;28;20493;-73
2023/04/25 06:08:14;;;;;;;3.88;1.85;;;21.40;55.20;;;;;;5090167;28;20035;-73
2023/04/25 06:10:40;;;;;;;6.65;2.50;;;21.40;55.40;;;;;;5070228;28;20032;-73
2023/04/25 06:13:06;;;;;;;4.97;1.98;;;21.40;55.20;;;;;;5080149;28;20042;-73
2023/04/25 06:15:34;;;;;;;7.13;2.13;;;21.40;55.20;;;;;;5081946;28;20024;-73
2023/04/25 06:18:00;;;;;;;5.90;2.50;;;21.40;55.20;;;;;;5080260;28;20059;-73
2023/04/25 06:20:26;;;;;;;6.40;2.28;;;21.40;55.80;;;;;;5071865;28;20215;-73
2023/04/25 06:22:55;;;;;;;4.53;2.25;;;21.40;55.60;;;;;;5075990;28;20058;-73
2023/04/25 06:25:27;;;;;;;5.80;2.00;;;21.40;55.60;;;;;;5079427;28;20078;-73
2023/04/25 06:27:54;;;;;;;5.40;2.17;;;21.40;55.40;;;;;;5086162;28;20524;-73
2023/04/25 06:30:24;;;;;;;4.90;2.10;;;21.40;55.20;;;;;;5091630;28;20032;-73
2023/04/25 06:32:56;;;;;;;4.15;2.00;;;21.40;55.20;;;;;;5089004;28;20031;-73
2023/04/25 06:35:23;;;;;;;7.13;2.30;;;21.40;55.30;;;;;;5089649;28;20024;-72
2023/04/25 06:37:49;;;;;;;7.13;2.58;;;21.40;55.30;;;;;;5082003;28;20099;-74
2023/04/25 06:40:20;;;;;;;4.15;2.20;;;21.40;55.30;;;;;;5073699;28;20489;-74
2023/04/25 06:42:47;;;;;;;4.70;2.00;;;21.40;55.30;;;;;;5084579;28;20035;-74
2023/04/25 06:45:31;;;;;;;4.60;2.20;;;21.40;55.30;;;;;;5103994;28;20044;-73
2023/04/25 06:47:58;;;;;;;4.78;2.05;;;21.40;55.20;;;;;;5080281;28;20031;-74
2023/04/25 06:50:24;;;;;;;7.32;2.20;;;21.40;55.30;;;;;;5088636;28;20041;-73
2023/04/25 06:52:50;;;;;;;6.65;2.50;;;21.40;55.50;;;;;;5070278;28;20028;-73
2023/04/25 06:55:17;;;;;;;6.80;2.40;;;21.40;55.50;;;;;;5085133;28;20473;-73
2023/04/25 06:58:03;;;;;;;10.70;2.92;;;21.40;55.60;;;;;;5083541;28;20045;-73
2023/04/25 07:00:51;;;;;;;8.60;2.40;;;21.40;55.50;;;;;;5087798;28;20070;-72
2023/04/25 07:03:20;;;;;;;6.50;2.22;;;21.40;55.80;;;;;;5084636;22;20052;-73
2023/04/25 07:05:46;;;;;;;8.10;2.47;;;21.40;55.50;;;;;;5072466;28;20028;-73
2023/04/25 07:08:12;;;;;;;8.40;2.33;;;21.40;55.50;;;;;;5040297;28;20028;-73
2023/04/25 07:10:38;;;;;;;8.90;2.42;;;21.40;55.70;;;;;;5058921;28;20033;-73
2023/04/25 07:13:04;;;;;;;7.45;2.42;;;21.40;55.60;;;;;;5049295;28;20029;-72
2023/04/25 07:15:30;;;;;;;6.15;2.55;;;21.40;56.40;;;;;;5066642;28;20025;-73
2023/04/25 07:17:57;;;;;;;10.48;2.60;;;21.40;55.50;;;;;;5071574;28;20032;-72
2023/04/25 07:20:23;;;;;;;8.05;3.00;;;21.40;55.50;;;;;;5067357;28;20037;-73
2023/04/25 07:22:50;;;;;;;6.43;2.67;;;21.40;55.60;;;;;;5052866;28;20036;-72
2023/04/25 07:25:16;;;;;;;7.35;2.70;;;21.40;55.60;;;;;;5049745;28;20371;-73
2023/04/25 07:27:43;;;;;;;11.75;3.13;;;21.40;55.50;;;;;;5059664;28;20493;-73
2023/04/25 07:30:15;;;;;;;9.25;2.50;;;21.40;56.20;;;;;;5060311;28;20029;-72
2023/04/25 07:32:41;;;;;;;4.53;1.90;;;21.40;57.00;;;;;;5072500;28;20025;-73
2023/04/25 07:35:07;;;;;;;7.70;2.60;;;21.40;56.70;;;;;;5070802;28;20025;-71
2023/04/25 07:37:34;;;;;;;8.32;2.50;;;21.40;56.20;;;;;;5070806;28;20032;-73
2023/04/25 07:40:16;;;;;;;9.15;2.45;;;21.40;56.80;;;;;;5064213;28;20028;-72
2023/04/25 07:42:46;;;;;;;6.78;2.38;;;21.40;56.60;;;;;;5072504;28;20031;-72
2023/04/25 07:45:16;;;;;;;6.68;2.42;;;21.40;56.80;;;;;;5072843;28;20033;-72
2023/04/25 07:47:42;;;;;;;11.40;3.13;;;21.50;56.70;;;;;;5060116;28;20020;-73
2023/04/25 07:50:08;;;;;;;10.60;3.00;;;21.50;57.10;;;;;;5041695;28;20036;-73
2023/04/25 07:52:34;;;;;;;11.20;3.22;;;21.50;56.60;;;;;;5051160;28;20094;-72
2023/04/25 07:55:08;;;;;;;14.02;2.80;;;21.50;56.40;;;;;;5050009;28;20025;-71
2023/04/25 07:57:47;;;;;;;9.45;2.67;;;21.50;57.00;;;;;;5033616;28;20099;-71
2023/04/25 08:00:14;;;;;;;16.63;3.13;;;21.50;56.60;;;;;;5053469;28;20079;-72
2023/04/25 08:02:42;;;;;;;17.38;3.60;;;21.60;57.00;;;;;;5053894;28;20063;-72
2023/04/25 08:05:14;;;;;;;23.55;4.07;;;21.50;55.80;;;;;;5068616;28;20068;-72
2023/04/25 08:07:43;;;;;;;15.77;3.95;;;21.40;51.20;;;;;;5061938;28;20044;-72
2023/04/25 08:10:10;;;;;;;31.38;4.15;;;21.20;46.70;;;;;;5068232;28;20120;-72
2023/04/25 08:12:36;;;;;;;17.90;4.28;;;21.10;47.30;;;;;;5067585;28;20111;-72
2023/04/25 08:15:03;;;;;;;14.98;3.78;;;21.20;51.70;;;;;;5032789;28;20025;-72
2023/04/25 08:17:34;;;;;;;25.55;5.28;;;21.30;51.80;;;;;;5059920;28;20036;-73
2023/04/25 08:20:05;;;;;;;23.85;4.60;;;21.40;53.00;;;;;;5068129;28;20116;-72
2023/04/25 08:22:32;;;;;;;17.63;3.90;;;21.50;52.70;;;;;;5064325;28;20082;-73
2023/04/25 08:25:20;;;;;;;17.23;4.10;;;21.50;52.10;;;;;;5013794;28;20283;-73
2023/04/25 08:27:47;;;;;;;18.75;4.00;;;21.60;51.90;;;;;;5060015;28;20104;-73
2023/04/25 08:30:13;;;;;;;17.17;4.35;;;21.60;51.50;;;;;;5069668;28;20099;-73
2023/04/25 08:32:43;;;;;;;28.17;4.97;;;21.60;51.40;;;;;;5049715;28;20061;-72
2023/04/25 08:35:26;;;;;;;28.40;4.40;;;21.60;51.30;;;;;;5067968;28;20079;-72
2023/04/25 08:37:52;;;;;;;23.65;4.85;;;21.60;51.40;;;;;;5061713;28;20017;-72
2023/04/25 08:40:25;;;;;;;21.55;4.00;;;21.60;51.80;;;;;;5016213;28;20029;-73
2023/04/25 08:43:14;;;;;;;17.45;3.58;;;21.60;51.30;;;;;;5060507;28;20043;-73
2023/04/25 08:45:42;;;;;;;12.13;3.70;;;21.50;51.90;;;;;;5069094;28;20040;-73
2023/04/25 08:48:13;;;;;;;17.02;3.80;;;21.50;51.80;;;;;;5059420;28;20035;-72
2023/04/25 08:50:43;;;;;;;14.60;3.83;;;21.60;52.40;;;;;;5061463;28;20028;-73
2023/04/25 08:53:13;;;;;;;18.65;4.20;;;21.60;51.80;;;;;;5044734;28;20017;-73
2023/04/25 08:55:42;;;;;;;14.13;4.28;;;21.60;51.80;;;;;;5068610;28;20032;-72
2023/04/25 08:58:10;;;;;;;;;;;21.60;52.00;;;;;;5039306;28;20059;-72
2023/04/25 09:00:36;;;;;;;15.15;3.72;;;21.50;51.90;;;;;;5078651;28;19908;-72
2023/04/25 09:03:03;;;;;;;16.30;4.10;;;21.60;51.80;;;;;;5062883;28;20390;-72
2023/04/25 09:05:35;;;;;;;15.25;4.00;;;21.60;51.80;;;;;;5068571;28;20059;-72
2023/04/25 09:08:01;;;;;;;13.10;3.55;;;21.60;51.80;;;;;;5067887;28;20048;-72
2023/04/25 09:10:28;;;;;;;13.15;3.97;;;21.60;51.80;;;;;;5051457;28;20028;-72
2023/04/25 09:13:14;;;;;;;12.15;3.80;;;21.60;52.00;;;;;;5062625;28;20029;-72
2023/04/25 09:16:00;;;;;;;16.23;4.07;;;21.70;52.60;;;;;;5069734;28;20030;-73
2023/04/25 09:18:37;;;;;;;12.68;3.55;;;21.70;52.20;;;;;;5057262;28;20064;-73
2023/04/25 09:21:10;;;;;;;12.50;3.80;;;21.70;52.60;;;;;;5048179;28;20029;-73
2023/04/25 09:23:46;;;;;;;14.20;3.85;;;21.70;52.40;;;;;;5051977;28;20032;-73
2023/04/25 09:26:17;;;;;;;12.68;3.60;;;21.70;52.40;;;;;;5064680;28;20020;-73
2023/04/25 09:28:45;;;;;;;20.98;3.95;;;21.70;52.60;;;;;;5063549;28;20025;-71
2023/04/25 09:31:11;;;;;;;12.45;4.05;;;21.70;52.50;;;;;;5067640;28;20040;-71
2023/04/25 09:33:44;;;;;;;11.38;3.58;;;21.70;53.20;;;;;;5065064;28;20439;-72
2023/04/25 09:36:11;;;;;;;19.08;3.85;;;21.80;52.70;;;;;;5068462;28;20063;-72
2023/04/25 09:38:59;;;;;;;12.50;3.63;;;21.70;53.30;;;;;;5086080;28;20071;-72
2023/04/25 09:41:28;;;;;;;24.88;4.82;;;21.70;53.10;;;;;;5064228;28;20033;-72
2023/04/25 09:43:58;;;;;;;11.55;3.40;;;21.70;52.70;;;;;;5047969;28;20032;-71
2023/04/25 09:46:34;;;;;;;12.38;3.95;;;21.70;52.70;;;;;;5065366;28;20039;-70
2023/04/25 09:49:06;;;;;;;17.25;3.90;;;21.70;52.50;;;;;;5048626;28;20462;-71
2023/04/25 09:51:37;;;;;;;12.70;3.83;;;21.80;52.90;;;;;;5048013;28;20033;-73
2023/04/25 09:54:06;;;;;;;17.33;3.92;;;21.80;53.00;;;;;;5032371;28;20025;-73
2023/04/25 09:56:39;;;;;;;18.23;4.28;;;21.80;53.10;;;;;;5065053;28;20025;-72
2023/04/25 09:59:08;;;;;;;19.23;3.42;;;21.70;52.60;;;;;;5049390;28;20398;-72
2023/04/25 10:01:40;;;;;;;21.25;3.45;;;21.80;52.20;;;;;;5066997;28;20036;-73
2023/04/25 10:04:12;;;;;;;14.07;3.42;;;21.70;52.30;;;;;;5067055;28;20024;-72
2023/04/25 10:06:43;;;;;;;15.23;3.53;;;21.70;52.10;;;;;;5069112;28;20032;-72
2023/04/25 10:09:11;;;;;;;10.33;3.43;;;21.70;52.10;;;;;;5051256;28;20028;-75
2023/04/25 10:11:39;;;;;;;16.92;3.65;;;21.70;52.20;;;;;;5067880;28;20305;-73
2023/04/25 10:14:05;;;;;;;15.27;4.38;;;21.70;52.40;;;;;;5069053;28;20036;-72
2023/04/25 10:16:31;;;;;;;13.88;3.83;;;21.70;52.40;;;;;;5068129;28;20089;-72
2023/04/25 10:18:57;;;;;;;13.60;3.35;;;21.70;51.80;;;;;;5068229;28;20032;-72
2023/04/25 10:21:26;;;;;;;15.02;3.72;;;21.70;51.70;;;;;;5068615;28;20139;-70
2023/04/25 10:23:53;;;;;;;16.88;3.33;;;21.70;51.70;;;;;;5069167;28;20511;-72
2023/04/25 10:26:19;;;;;;;13.13;3.60;;;21.70;51.40;;;;;;5069292;28;20055;-72
2023/04/25 10:28:59;;;;;;;12.75;3.55;;;21.70;51.70;;;;;;5067992;28;20028;-72
2023/04/25 10:31:25;;;;;;;14.75;3.97;;;21.70;52.40;;;;;;5068737;28;20044;-72
2023/04/25 10:33:51;;;;;;;11.65;3.92;;;21.70;51.70;;;;;;5069042;28;20024;-72
2023/04/25 10:36:22;;;;;;;11.52;3.28;;;21.60;51.60;;;;;;5068981;28;20049;-72
2023/04/25 10:38:50;;;;;;;10.23;3.50;;;21.70;51.70;;;;;;5069150;28;20103;-72
2023/04/25 10:41:18;;;;;;;14.20;4.10;;;21.70;51.60;;;;;;5067438;28;20028;-72
2023/04/25 10:43:46;;;;;;;13.80;3.45;;;21.70;51.50;;;;;;5069014;28;20064;-73
2023/04/25 10:46:21;;;;;;;10.75;3.33;;;21.60;51.30;;;;;;5067743;28;20032;-73
2023/04/25 10:48:51;;;;;;;15.85;3.20;;;21.70;51.40;;;;;;5067723;28;20033;-72
2023/04/25 10:51:23;;;;;;;11.43;3.50;;;21.70;51.30;;;;;;5068514;28;20040;-73
2023/04/25 10:53:54;;;;;;;14.05;4.18;;;21.60;51.50;;;;;;5068773;28;20654;-73
2023/04/25 10:56:21;;;;;;;10.05;3.42;;;21.60;51.30;;;;;;5068751;28;20033;-72
2023/04/25 10:58:48;;;;;;;8.95;3.30;;;21.70;51.80;;;;;;5068742;28;20024;-72
2023/04/25 11:01:19;;;;;;;10.73;3.30;;;21.60;51.50;;;;;;5068543;28;20153;-72
2023/04/25 11:03:45;;;;;;;10.40;3.70;;;21.60;51.50;;;;;;5067622;28;20051;-73
2023/04/25 11:06:37;;;;;;;9.35;3.42;;;21.60;51.50;;;;;;5067510;28;20036;-72
2023/04/25 11:09:08;;;;;;;19.92;3.65;;;21.60;51.80;;;;;;5067409;28;20028;-72
2023/04/25 11:11:36;;;;;;;11.20;3.80;;;21.60;52.00;;;;;;5050332;28;20111;-72
2023/04/25 11:14:02;;;;;;;14.48;3.60;;;21.60;52.10;;;;;;5071690;28;20470;-72
2023/04/25 11:16:28;;;;;;;16.85;4.68;;;21.50;52.20;;;;;;5071116;28;20036;-73
2023/04/25 11:18:58;;;;;;;15.75;3.85;;;21.50;52.80;;;;;;5072448;28;20025;-73
2023/04/25 11:21:26;;;;;;;14.30;3.78;;;21.60;52.60;;;;;;5071992;28;20035;-72
2023/04/25 11:23:52;;;;;;;15.50;3.80;;;21.60;52.40;;;;;;5070226;28;20040;-73
2023/04/25 11:26:20;;;;;;;12.65;3.65;;;21.60;52.70;;;;;;5070769;28;20032;-72
2023/04/25 11:28:46;;;;;;;9.45;3.50;;;21.60;52.50;;;;;;5072052;28;20024;-72
2023/04/25 11:31:12;;;;;;;16.40;3.17;;;21.60;52.60;;;;;;5053692;28;20038;-72
2023/04/25 11:33:40;;;;;;;13.13;3.17;;;21.60;52.70;;;;;;5070526;28;20036;-72
2023/04/25 11:36:06;;;;;;;13.75;3.75;;;21.60;52.80;;;;;;5070782;28;20055;-73
2023/04/25 11:38:32;;;;;;;9.10;3.20;;;21.60;52.90;;;;;;5071433;28;20032;-72
2023/04/25 11:40:58;;;;;;;14.57;4.00;;;21.60;52.90;;;;;;5071469;28;20037;-72
2023/04/25 11:43:25;;;;;;;17.08;4.80;;;21.60;53.10;;;;;;5053851;28;20029;-72
2023/04/25 11:45:52;;;;;;;16.23;4.55;;;21.70;53.60;;;;;;5049636;28;20028;-72
2023/04/25 11:48:20;;;;;;;11.23;3.53;;;21.70;53.10;;;;;;5069402;28;20028;-72
2023/04/25 11:50:46;;;;;;;18.23;4.73;;;21.70;52.80;;;;;;5069207;28;20117;-72
2023/04/25 11:53:12;;;;;;;13.02;4.38;;;21.80;53.50;;;;;;5070640;28;20052;-72
2023/04/25 11:55:39;;;;;;;12.07;3.90;;;21.80;53.80;;;;;;5069860;28;20119;-72
2023/04/25 11:58:05;;;;;;;11.05;3.72;;;21.80;53.70;;;;;;5069413;28;20043;-73
2023/04/25 12:00:31;;;;;;;13.73;3.83;;;21.70;53.50;;;;;;5070359;28;20557;-72
2023/04/25 12:02:58;;;;;;;10.20;3.63;;;21.70;53.50;;;;;;5065375;28;20047;-72
2023/04/25 12:05:26;;;;;;;16.77;3.90;;;21.70;53.50;;;;;;5071073;28;20028;-72
2023/04/25 12:07:52;;;;;;;11.00;3.50;;;21.80;53.60;;;;;;5055559;28;20478;-73
2023/04/25 12:10:19;;;;;;;12.25;3.72;;;21.80;53.60;;;;;;5079899;28;20028;-72
2023/04/25 12:12:46;;;;;;;10.85;3.88;;;21.80;53.60;;;;;;5070305;28;20426;-72
2023/04/25 12:15:23;;;;;;;12.55;3.67;;;21.70;53.60;;;;;;5080184;28;20067;-72
2023/04/25 12:17:51;;;;;;;13.82;3.78;;;21.70;53.50;;;;;;5080159;28;20104;-72
2023/04/25 12:20:23;;;;;;;13.80;3.88;;;21.70;53.40;;;;;;5069413;28;20024;-72
2023/04/25 12:22:50;;;;;;;8.63;3.60;;;21.70;53.30;;;;;;5069643;28;20039;-72
2023/04/25 12:25:38;;;;;;;11.65;3.95;;;21.70;53.30;;;;;;5070790;28;20028;-72
2023/04/25 12:28:15;;;;;;;11.70;3.75;;;21.70;53.20;;;;;;5071202;28;20398;-72
2023/04/25 12:30:57;;;;;;;15.40;3.47;;;21.70;53.30;;;;;;5069471;28;20033;-72
2023/04/25 12:33:24;;;;;;;12.45;3.38;;;21.70;53.10;;;;;;5076471;28;20024;-75
2023/04/25 12:35:50;;;;;;;12.63;3.60;;;21.70;53.10;;;;;;5052885;28;20405;-75
2023/04/25 12:38:26;;;;;;;13.50;3.45;;;21.70;51.60;;;;;;5069189;28;20021;-72
2023/04/25 12:40:53;;;;;;;11.15;3.40;;;21.60;48.50;;;;;;5079258;28;20798;-71
2023/04/25 12:43:19;;;;;;;13.00;3.40;;;21.60;49.90;;;;;;5086284;28;20035;-71
2023/04/25 12:45:49;;;;;;;17.65;3.28;;;21.60;48.40;;;;;;5078391;28;20028;-72
2023/04/25 12:48:15;;;;;;;13.90;4.40;;;21.70;48.70;;;;;;5071062;28;20031;-72
2023/04/25 12:50:42;;;;;;;12.20;3.20;;;21.70;48.70;;;;;;5070677;28;20024;-72
2023/04/25 12:53:08;;;;;;;14.75;3.67;;;21.70;48.70;;;;;;5047234;28;20478;-71
2023/04/25 12:55:34;;;;;;;10.65;3.63;;;21.70;48.60;;;;;;5064308;28;20032;-72
2023/04/25 12:57:59;;;;;;;16.83;3.42;;;21.70;49.00;;;;;;5091019;28;20821;-71